Terminal Aerodrome Forecast
Issued by NWS

Home | Current Version | Previous Version | Text Only | Print | Product List | Glossary On
Versions: 1 2 3 4 5 6 7 8 9 10 11 12 13 14 15 16
000
FTUS44 KCRP 251839 AAA
TAFALI
TAF AMD
KALI 251839Z 2519/2618 16009KT P6SM VCTS FEW035CB
      TEMPO 2519/2520 -TSRA SCT030CB
     FM252100 14012G18KT P6SM SCT040
     FM260200 15008KT P6SM FEW020
     FM260900 VRB03KT 4SM BR SCT012
      TEMPO 2609/2612 1SM BR BKN012
     FM261400 11010KT P6SM SCT030=

USA.gov is the U.S. government's official web portal to all federal, state and local government web resources and services.